Adena, OH

7:52 AM EDT on September 01, 2015 (GMT -0400)
Upland Heights | | Change Station
CLOSE
Current Station
Personal Weather Station
Location: Rayland, OH
Elevation: 1089 ft
Nearby Weather Stations

Elev 1089 ft 40.16 °N, 80.72 °W | Updated 10 minutes ago

Fog
Fog
65.8 °F
Feels Like 65.8 °F
N
0.0
Wind Variable Wind from South

Today
High -- | Low -- °F
--% Chance of Precip.
Yesterday
High -- | Low -- °F
Precip. -- in
6:50 AM 7:55 PM
Waning Gibbous, 89% visible
Pressure 30.14 in
Visibility 0.2 miles
Clouds
Dew Point 64 °F
Humidity 95%
Rainfall 0.00 in
Snow Depth Not available.
UV Not available.
Pollen 10.50 out of 12
Air Quality Not available.
Flu Activity Not available.
SPECI KHLG 011129Z 00000KT M1/4SM R03/0400FT FG VV003 18/18 A3014 RMK AO2 T01830178
Pressure 30.14 in
Visibility 0.2 miles
Clouds
Dew Point 64 °F
Humidity 95%
Rainfall 0.00 in
Snow Depth Not available.
UV Not available.
Pollen 10.50 out of 12
Air Quality Not available.
Flu Activity Not available.
SPECI KHLG 011129Z 00000KT M1/4SM R03/0400FT FG VV003 18/18 A3014 RMK AO2 T01830178

10-Day Weather Forecast

×

Almanac

Astronomy

Sep. 01, 2015 Rise Set
Actual Time
Civil Twilight
Nautical Twilight
Astronomical Twilight
Moon
Length of Visible Light
Length of Day
Tomorrow will be .
, % of the Moon is Illuminated

Today's Extremes

State Highs State Lows

Community

WunderPhotos

Upload Photos

1,851,506 photos uploaded!

WunderBlogs® & News

Nearby

Air Quality

  Air Quality AQ Index Pollutant
Not available.

Snow Depth

Station Depth Elevation

Earthquake Activity

City Distance Mag. Time & Date
Minimum magnitude displayed is 2.5.

Coastal Water Temperatures

Place Temperature

Stations

Nearby Weather Stations

Station Location Temp. Windchill Dew Point Humidity Wind Precip. Elev Updated Type